F/V Mare Liberum — FVHW — position and weather

sailwx.info

Track history (hours):
 
Tides and Currents Weather Stations Pressure Air Temp Water Temp Dewpoint Dewpoint Depression Visibility Wind Speed Wind Dir Waves Ship Positions

F/V Mare Liberum

Last reported at 2015-Jul-05 04:33 UTC. Time now 2015-Jul-05 06:01 UTC.
Position N 47°01' W 002°18'.

Length 21 m.

Type: Fishing. MMSI: 227426000.

Date/timePositionNaut miles runAvg speedWind from/ knotsBaromVisibWave heightAir tempDewpointWater temp
2015-Jul-05 04:33N 47°01' W 002°18'0 0.0
2015-Jul-05 03:33N 47°01' W 002°18'0 0.0
2015-Jul-05 02:33N 47°01' W 002°18'0 0.0
2015-Jul-05 01:33N 47°01' W 002°18'0 0.0
2015-Jul-05 00:33N 47°01' W 002°18'0 0.0
2015-Jul-04 23:33N 47°01' W 002°18'0 0.0
2015-Jul-04 22:33N 47°01' W 002°18'0 0.0
2015-Jul-04 21:33N 47°01' W 002°18'0 0.0
2015-Jul-04 20:33N 47°01' W 002°18'0 0.0
2015-Jul-04 19:33N 47°01' W 002°18'0 0.0
2015-Jul-04 18:26N 47°01' W 002°18'0 0.0
2015-Jul-04 17:33N 47°01' W 002°18'0 0.0
2015-Jul-04 16:24N 47°01' W 002°18'0 0.0
2015-Jul-04 15:28N 47°01' W 002°18'0 0.0
2015-Jul-04 14:29N 47°01' W 002°18'0 0.0
2015-Jul-04 13:31N 47°01' W 002°18'0 0.0
2015-Jul-04 12:16N 47°01' W 002°18'0 0.0
2015-Jul-04 11:15N 47°01' W 002°18'0 0.0
2015-Jul-04 10:23N 47°01' W 002°18'0 0.0
2015-Jul-04 09:26N 47°01' W 002°18'0 0.0
2015-Jul-04 08:31N 47°01' W 002°18'0 0.0
2015-Jul-04 07:33N 47°01' W 002°18'0 0.0
2015-Jul-04 06:33N 47°01' W 002°18'0 0.0
2015-Jul-04 05:33N 47°01' W 002°18'0 0.0
2015-Jul-04 04:33N 47°01' W 002°18'0 0.0
2015-Jul-04 03:33N 47°01' W 002°18'0 0.0
2015-Jul-04 02:34N 47°01' W 002°18'0 0.0
2015-Jul-04 01:32N 47°01' W 002°18'0 0.0
2015-Jul-04 00:33N 47°01' W 002°18'0 0.0
2015-Jul-03 23:33N 47°01' W 002°18'0 0.0
2015-Jul-03 22:32N 47°01' W 002°18'0 0.0
2015-Jul-03 21:33N 47°01' W 002°18'0 0.0
2015-Jul-03 20:33N 47°01' W 002°18'0 0.0
2015-Jul-03 19:16N 47°01' W 002°18'0 0.0
2015-Jul-03 17:24N 47°01' W 002°18'0 0.0
2015-Jul-03 16:25N 47°01' W 002°18'0 0.0
2015-Jul-03 15:25N 47°01' W 002°18'0 0.0
2015-Jul-03 07:31N 47°01' W 002°18'0 0.0
2015-Jul-03 06:33N 47°01' W 002°18'0 0.0
2015-Jul-03 05:34N 47°01' W 002°18'0 0.0
2015-Jul-03 04:33N 47°01' W 002°18'0 0.0
2015-Jul-03 03:33N 47°01' W 002°18'0 0.0
2015-Jul-03 02:33N 47°01' W 002°18'0 0.0
2015-Jul-03 01:33N 47°01' W 002°18'0 0.0
2015-Jul-03 00:33N 47°01' W 002°18'0 0.0
2015-Jul-02 23:33N 47°01' W 002°18'0 0.0
2015-Jul-02 22:32N 47°01' W 002°18'0 0.0
2015-Jul-02 21:33N 47°01' W 002°18'0 0.0
2015-Jul-02 20:34N 47°01' W 002°18'0 0.0
2015-Jul-02 19:24N 47°01' W 002°18'0 0.0
2015-Jul-02 12:28N 47°01' W 002°18'0 0.0
2015-Jul-02 11:30N 47°01' W 002°18'0 0.0
2015-Jul-02 07:11N 47°01' W 002°18'0 0.0
2015-Jul-02 05:09N 47°01' W 002°18'0 0.0
2015-Jul-02 04:31N 47°01' W 002°18'0 0.0
2015-Jul-02 03:05N 47°01' W 002°18'0 0.0
2015-Jul-02 02:34N 47°01' W 002°18'0 0.0
2015-Jul-02 01:33N 47°01' W 002°18'0 0.0
2015-Jul-02 00:33N 47°01' W 002°18'0 0.0
2015-Jul-01 23:33N 47°01' W 002°18'0 0.0
2015-Jul-01 22:33N 47°01' W 002°18'0 0.0
2015-Jul-01 21:33N 47°01' W 002°18'0 0.0
2015-Jul-01 20:28N 47°01' W 002°18'0 0.0
2015-Jul-01 19:32N 47°01' W 002°18'0 0.0
2015-Jul-01 18:33N 47°01' W 002°18'0 0.0
2015-Jul-01 17:33N 47°01' W 002°18'0 0.0
2015-Jul-01 16:33N 47°01' W 002°18'0 0.1
2015-Jul-01 15:33N 47°02' W 002°18'0 0.0
2015-Jul-01 14:17N 47°02' W 002°18'66 7.1
2015-Jul-01 05:03N 46°30' W 003°41'5 5.8
2015-Jul-01 04:14N 46°28' W 003°48'2 2.2
2015-Jul-01 03:33N 46°29' W 003°48'2 1.6
2015-Jul-01 02:33N 46°31' W 003°48'1 0.7
2015-Jul-01 01:28N 46°32' W 003°48'1 1.6
2015-Jul-01 00:33N 46°30' W 003°48'2 2.1
2015-Jun-30 23:33N 46°28' W 003°48'4 3.6
2015-Jun-30 22:32N 46°32' W 003°49'2 1.6
2015-Jun-30 21:23N 46°30' W 003°49'1 0.6
2015-Jun-30 20:31N 46°29' W 003°49'2 1.6
2015-Jun-30 19:16N 46°27' W 003°49'2 1.3
2015-Jun-30 17:22N 46°30' W 003°50'3 0.3
2015-Jun-30 06:33N 46°33' W 003°52'2 1.6
2015-Jun-30 05:33N 46°34' W 003°52'7 6.6
2015-Jun-30 04:33N 46°28' W 003°52'1 0.1
2015-Jun-29 21:03N 46°27' W 003°52'0 0.0
2015-Jun-29 20:33N 46°27' W 003°52'0 0.0
2015-Jun-29 19:16N 46°27' W 003°52'0 0.0
2015-Jun-29 18:33N 46°27' W 003°52'0 0.0
2015-Jun-29 17:32N 46°27' W 003°52'0 0.0
2015-Jun-29 16:31N 46°27' W 003°52'0 0.0
2015-Jun-29 15:33N 46°27' W 003°52'0 0.3
2015-Jun-29 14:31N 46°27' W 003°52'4 4.1
2015-Jun-29 13:33N 46°30' W 003°48'1 0.9
2015-Jun-29 12:33N 46°31' W 003°49'4 3.7
2015-Jun-29 11:33N 46°27' W 003°49'4 4.4
2015-Jun-29 10:32N 46°30' W 003°54'3 2.1
2015-Jun-29 09:09N 46°33' W 003°54'1 2.2
2015-Jun-29 08:32N 46°34' W 003°54'2 1.7
2015-Jun-29 07:33N 46°36' W 003°55'3 2.2
2015-Jun-29 06:26N 46°33' W 003°55'2 2.2
2015-Jun-29 05:33N 46°32' W 003°55'2 2.1
2015-Jun-29 04:30N 46°29' W 003°55'1 1.0
2015-Jun-29 03:28N 46°28' W 003°54'0 0.0
2015-Jun-29 02:25N 46°28' W 003°54'0 0.1
2015-Jun-29 01:31N 46°28' W 003°54'0 0.1
2015-Jun-29 00:32N 46°29' W 003°54'0 0.1
2015-Jun-28 23:33N 46°29' W 003°54'2 0.2
2015-Jun-28 14:11N 46°29' W 003°51'5 6.6
2015-Jun-28 13:29N 46°34' W 003°51'4 0.8
2015-Jun-28 08:18N 46°35' W 003°57'5 1.8
2015-Jun-28 05:33N 46°30' W 003°58'2 2.0
2015-Jun-28 04:26N 46°28' W 003°58'1 0.5
2015-Jun-28 03:27N 46°27' W 003°57'0 0.1
2015-Jun-28 00:22N 46°28' W 003°57'0 0.1
2015-Jun-27 23:33N 46°28' W 003°57'0 0.1
2015-Jun-27 22:33N 46°28' W 003°57'0 0.0
2015-Jun-27 21:33N 46°28' W 003°57'0 0.1
2015-Jun-27 20:33N 46°28' W 003°57'0 0.1
2015-Jun-27 19:33N 46°28' W 003°57'9 1.5
2015-Jun-27 13:28N 46°36' W 003°54'9 0.5
2015-Jun-26 19:21N 46°28' W 003°60'0 0.0
2015-Jun-26 18:13N 46°28' W 003°60'0 0.0
2015-Jun-26 17:25N 46°28' W 003°60'0 0.0
2015-Jun-26 16:20N 46°28' W 003°60'0 0.1
2015-Jun-26 15:33N 46°28' W 003°60'0 0.1
2015-Jun-26 14:29N 46°28' W 003°60'2 0.7
2015-Jun-26 11:10N 46°29' W 004°03'2 2.2
2015-Jun-26 10:08N 46°32' W 004°03'1 2.1
2015-Jun-26 09:33N 46°33' W 004°03'2 2.1
2015-Jun-26 08:24N 46°35' W 004°03'1 0.7
2015-Jun-26 07:21N 46°35' W 004°03'2 2.1
2015-Jun-26 06:32N 46°33' W 004°03'2 2.2
2015-Jun-26 05:26N 46°31' W 004°03'2 2.1
2015-Jun-26 04:33N 46°29' W 004°03'1 0.6
2015-Jun-26 03:30N 46°28' W 004°03'0 0.2
2015-Jun-26 02:32N 46°28' W 004°03'0 0.0
2015-Jun-26 01:22N 46°28' W 004°03'0 0.2
2015-Jun-26 00:19N 46°28' W 004°02'0 0.3
2015-Jun-25 23:33N 46°28' W 004°02'0 0.2
2015-Jun-25 22:23N 46°28' W 004°02'0 0.1
2015-Jun-25 21:32N 46°28' W 004°03'0 0.0
2015-Jun-25 20:32N 46°28' W 004°03'0 0.0
2015-Jun-25 19:33N 46°28' W 004°03'0 0.0
2015-Jun-25 18:33N 46°28' W 004°03'0 0.0
2015-Jun-25 17:22N 46°28' W 004°03'0 0.1
2015-Jun-25 14:30N 46°28' W 004°03'6 1.1
2015-Jun-25 09:04N 46°34' W 004°05'3 0.8
2015-Jun-25 05:25N 46°31' W 004°06'  
Track history (hours):
 
Tides and Currents Weather Stations Pressure Air Temp Water Temp Dewpoint Dewpoint Depression Visibility Wind Speed Wind Dir Waves Ship Positions

F/V Mare Liberum

Last reported at 2015-Jul-05 04:33 UTC. Time now 2015-Jul-05 06:01 UTC.
Position N 47°01' W 002°18'.

Length 21 m.

Type: Fishing. MMSI: 227426000.

Date/timePositionNaut miles runAvg speedWind from/ knotsBaromVisibWave heightAir tempDewpointWater temp
2015-Jul-05 04:33N 47°01' W 002°18'0 0.0
2015-Jul-05 03:33N 47°01' W 002°18'0 0.0
2015-Jul-05 02:33N 47°01' W 002°18'0 0.0
2015-Jul-05 01:33N 47°01' W 002°18'0 0.0
2015-Jul-05 00:33N 47°01' W 002°18'0 0.0
2015-Jul-04 23:33N 47°01' W 002°18'0 0.0
2015-Jul-04 22:33N 47°01' W 002°18'0 0.0
2015-Jul-04 21:33N 47°01' W 002°18'0 0.0
2015-Jul-04 20:33N 47°01' W 002°18'0 0.0
2015-Jul-04 19:33N 47°01' W 002°18'0 0.0
2015-Jul-04 18:26N 47°01' W 002°18'0 0.0
2015-Jul-04 17:33N 47°01' W 002°18'0 0.0
2015-Jul-04 16:24N 47°01' W 002°18'0 0.0
2015-Jul-04 15:28N 47°01' W 002°18'0 0.0
2015-Jul-04 14:29N 47°01' W 002°18'0 0.0
2015-Jul-04 13:31N 47°01' W 002°18'0 0.0
2015-Jul-04 12:16N 47°01' W 002°18'0 0.0
2015-Jul-04 11:15N 47°01' W 002°18'0 0.0
2015-Jul-04 10:23N 47°01' W 002°18'0 0.0
2015-Jul-04 09:26N 47°01' W 002°18'0 0.0
2015-Jul-04 08:31N 47°01' W 002°18'0 0.0
2015-Jul-04 07:33N 47°01' W 002°18'0 0.0
2015-Jul-04 06:33N 47°01' W 002°18'0 0.0
2015-Jul-04 05:33N 47°01' W 002°18'0 0.0
2015-Jul-04 04:33N 47°01' W 002°18'0 0.0
2015-Jul-04 03:33N 47°01' W 002°18'0 0.0
2015-Jul-04 02:34N 47°01' W 002°18'0 0.0
2015-Jul-04 01:32N 47°01' W 002°18'0 0.0
2015-Jul-04 00:33N 47°01' W 002°18'0 0.0
2015-Jul-03 23:33N 47°01' W 002°18'0 0.0
2015-Jul-03 22:32N 47°01' W 002°18'0 0.0
2015-Jul-03 21:33N 47°01' W 002°18'0 0.0
2015-Jul-03 20:33N 47°01' W 002°18'0 0.0
2015-Jul-03 19:16N 47°01' W 002°18'0 0.0
2015-Jul-03 17:24N 47°01' W 002°18'0 0.0
2015-Jul-03 16:25N 47°01' W 002°18'0 0.0
2015-Jul-03 15:25N 47°01' W 002°18'0 0.0
2015-Jul-03 07:31N 47°01' W 002°18'0 0.0
2015-Jul-03 06:33N 47°01' W 002°18'0 0.0
2015-Jul-03 05:34N 47°01' W 002°18'0 0.0
2015-Jul-03 04:33N 47°01' W 002°18'0 0.0
2015-Jul-03 03:33N 47°01' W 002°18'0 0.0
2015-Jul-03 02:33N 47°01' W 002°18'0 0.0
2015-Jul-03 01:33N 47°01' W 002°18'0 0.0
2015-Jul-03 00:33N 47°01' W 002°18'0 0.0
2015-Jul-02 23:33N 47°01' W 002°18'0 0.0
2015-Jul-02 22:32N 47°01' W 002°18'0 0.0
2015-Jul-02 21:33N 47°01' W 002°18'0 0.0
2015-Jul-02 20:34N 47°01' W 002°18'0 0.0
2015-Jul-02 19:24N 47°01' W 002°18'0 0.0
2015-Jul-02 12:28N 47°01' W 002°18'0 0.0
2015-Jul-02 11:30N 47°01' W 002°18'0 0.0
2015-Jul-02 07:11N 47°01' W 002°18'0 0.0
2015-Jul-02 05:09N 47°01' W 002°18'0 0.0
2015-Jul-02 04:31N 47°01' W 002°18'0 0.0
2015-Jul-02 03:05N 47°01' W 002°18'0 0.0
2015-Jul-02 02:34N 47°01' W 002°18'0 0.0
2015-Jul-02 01:33N 47°01' W 002°18'0 0.0
2015-Jul-02 00:33N 47°01' W 002°18'0 0.0
2015-Jul-01 23:33N 47°01' W 002°18'0 0.0
2015-Jul-01 22:33N 47°01' W 002°18'0 0.0
2015-Jul-01 21:33N 47°01' W 002°18'0 0.0
2015-Jul-01 20:28N 47°01' W 002°18'0 0.0
2015-Jul-01 19:32N 47°01' W 002°18'0 0.0
2015-Jul-01 18:33N 47°01' W 002°18'0 0.0
2015-Jul-01 17:33N 47°01' W 002°18'0 0.0
2015-Jul-01 16:33N 47°01' W 002°18'0 0.1
2015-Jul-01 15:33N 47°02' W 002°18'0 0.0
2015-Jul-01 14:17N 47°02' W 002°18'66 7.1
2015-Jul-01 05:03N 46°30' W 003°41'5 5.8
2015-Jul-01 04:14N 46°28' W 003°48'2 2.2
2015-Jul-01 03:33N 46°29' W 003°48'2 1.6
2015-Jul-01 02:33N 46°31' W 003°48'1 0.7
2015-Jul-01 01:28N 46°32' W 003°48'1 1.6
2015-Jul-01 00:33N 46°30' W 003°48'2 2.1
2015-Jun-30 23:33N 46°28' W 003°48'4 3.6
2015-Jun-30 22:32N 46°32' W 003°49'2 1.6
2015-Jun-30 21:23N 46°30' W 003°49'1 0.6
2015-Jun-30 20:31N 46°29' W 003°49'2 1.6
2015-Jun-30 19:16N 46°27' W 003°49'2 1.3
2015-Jun-30 17:22N 46°30' W 003°50'3 0.3
2015-Jun-30 06:33N 46°33' W 003°52'2 1.6
2015-Jun-30 05:33N 46°34' W 003°52'7 6.6
2015-Jun-30 04:33N 46°28' W 003°52'1 0.1
2015-Jun-29 21:03N 46°27' W 003°52'0 0.0
2015-Jun-29 20:33N 46°27' W 003°52'0 0.0
2015-Jun-29 19:16N 46°27' W 003°52'0 0.0
2015-Jun-29 18:33N 46°27' W 003°52'0 0.0
2015-Jun-29 17:32N 46°27' W 003°52'0 0.0
2015-Jun-29 16:31N 46°27' W 003°52'0 0.0
2015-Jun-29 15:33N 46°27' W 003°52'0 0.3
2015-Jun-29 14:31N 46°27' W 003°52'4 4.1
2015-Jun-29 13:33N 46°30' W 003°48'1 0.9
2015-Jun-29 12:33N 46°31' W 003°49'4 3.7
2015-Jun-29 11:33N 46°27' W 003°49'4 4.4
2015-Jun-29 10:32N 46°30' W 003°54'3 2.1
2015-Jun-29 09:09N 46°33' W 003°54'1 2.2
2015-Jun-29 08:32N 46°34' W 003°54'2 1.7
2015-Jun-29 07:33N 46°36' W 003°55'3 2.2
2015-Jun-29 06:26N 46°33' W 003°55'2 2.2
2015-Jun-29 05:33N 46°32' W 003°55'2 2.1
2015-Jun-29 04:30N 46°29' W 003°55'1 1.0
2015-Jun-29 03:28N 46°28' W 003°54'0 0.0
2015-Jun-29 02:25N 46°28' W 003°54'0 0.1
2015-Jun-29 01:31N 46°28' W 003°54'0 0.1
2015-Jun-29 00:32N 46°29' W 003°54'0 0.1
2015-Jun-28 23:33N 46°29' W 003°54'2 0.2
2015-Jun-28 14:11N 46°29' W 003°51'5 6.6
2015-Jun-28 13:29N 46°34' W 003°51'4 0.8
2015-Jun-28 08:18N 46°35' W 003°57'5 1.8
2015-Jun-28 05:33N 46°30' W 003°58'2 2.0
2015-Jun-28 04:26N 46°28' W 003°58'1 0.5
2015-Jun-28 03:27N 46°27' W 003°57'0 0.1
2015-Jun-28 00:22N 46°28' W 003°57'0 0.1
2015-Jun-27 23:33N 46°28' W 003°57'0 0.1
2015-Jun-27 22:33N 46°28' W 003°57'0 0.0
2015-Jun-27 21:33N 46°28' W 003°57'0 0.1
2015-Jun-27 20:33N 46°28' W 003°57'0 0.1
2015-Jun-27 19:33N 46°28' W 003°57'9 1.5
2015-Jun-27 13:28N 46°36' W 003°54'9 0.5
2015-Jun-26 19:21N 46°28' W 003°60'0 0.0
2015-Jun-26 18:13N 46°28' W 003°60'0 0.0
2015-Jun-26 17:25N 46°28' W 003°60'0 0.0
2015-Jun-26 16:20N 46°28' W 003°60'0 0.1
2015-Jun-26 15:33N 46°28' W 003°60'0 0.1
2015-Jun-26 14:29N 46°28' W 003°60'2 0.7
2015-Jun-26 11:10N 46°29' W 004°03'2 2.2
2015-Jun-26 10:08N 46°32' W 004°03'1 2.1
2015-Jun-26 09:33N 46°33' W 004°03'2 2.1
2015-Jun-26 08:24N 46°35' W 004°03'1 0.7
2015-Jun-26 07:21N 46°35' W 004°03'2 2.1
2015-Jun-26 06:32N 46°33' W 004°03'2 2.2
2015-Jun-26 05:26N 46°31' W 004°03'2 2.1
2015-Jun-26 04:33N 46°29' W 004°03'1 0.6
2015-Jun-26 03:30N 46°28' W 004°03'0 0.2
2015-Jun-26 02:32N 46°28' W 004°03'0 0.0
2015-Jun-26 01:22N 46°28' W 004°03'0 0.2
2015-Jun-26 00:19N 46°28' W 004°02'0 0.3
2015-Jun-25 23:33N 46°28' W 004°02'0 0.2
2015-Jun-25 22:23N 46°28' W 004°02'0 0.1
2015-Jun-25 21:32N 46°28' W 004°03'0 0.0
2015-Jun-25 20:32N 46°28' W 004°03'0 0.0
2015-Jun-25 19:33N 46°28' W 004°03'0 0.0
2015-Jun-25 18:33N 46°28' W 004°03'0 0.0
2015-Jun-25 17:22N 46°28' W 004°03'0 0.1
2015-Jun-25 14:30N 46°28' W 004°03'6 1.1
2015-Jun-25 09:04N 46°34' W 004°05'3 0.8
2015-Jun-25 05:25N 46°31' W 004°06'  

Dump ship's entire track history